Brainerd, Minnesota
Current Conditions -  °F | °C
As of 11:53 AM on Wednesday 28 Jan 2015 (Local Time) from KBRD Reporting Station
Haze Haze  
Wind Chill: 19°   Ceiling: 600
Heat Index: 29°   Visibility: 3mi
Dew Point: 27°   Wind: 12mph
Humidity: 92%   Direction: 170°S
Pressure: 29.85"   Gusts: NA
Location:  46.35°N, 94.2°W
Report Text: KBRD 281753Z AUTO 17010KT 3SM BR OVC006 M02/M03 A2985 RMK AO2 SLP124 T10171028 11017 21017 56018
Loading
Personal Weather Stations






























Interactive Weather Map New forecast layout! Learn more

10-Day Weather Forecast

Advertisements
Track Severe Weather on mobile